Portada
METAR-TAF:

METAR-TAF

Aeropuertos :

Palma de Mallorca, España

Aeropuerto de Palma de Mallorca

latitud: 39-33N, longitud: 002-44E, altitud: 4 m

Observación

El informe se hizo hace 35 minutos, a las 06:30 UTC
Viento 1 kt del noroeste
Temperatura 25°C
Humedad 69%
Presión 1020 hPa
Visibilidad 10 km o más
Escasas nubes a una altura de 2000 ft

METAR: LEPA 240630Z 32001KT 9999 FEW020 25/19 Q1020 NOSIG

Hora: 09:05 (07:05 UTC)

Pronóstico

El informe se hizo hace 14 horas y 5 minutos, a las 17:00 UTC
Pronóstico válido del 23 a las 18 UTC al 24 a las 18 UTC
Viento 10 kt del suroeste
Visibilidad 10 km o más
Escasas nubes a una altura de 2000 ft
Evolucionando progresivamente
del 23 a las 18 UTC al 23 a las 20 UTC
Viento 3 kt con dirección variable
Evolucionando progresivamente
del 24 a las 08 UTC al 24 a las 10 UTC
Viento 10 kt del suroeste

TAF: LEPA 231700Z 2318/2418 22010KT 9999 FEW020 TX31/2413Z TN19/2406Z BECMG 2318/2320 VRB03KT BECMG 2408/2410 22010KT

Observaciones y pronósticos meteorológicos de más de 4000 aeropuertos (mensajes METAR y TAF).

Los puntos amarillos y rojos representan las estaciones disponibles.

Ponga el ratón en el punto deseado para ver el nombre de la estación.

Haga clic para ver las observaciones y los pronósticos meteorológicos.

Para cambiar el mapa : haga clic en los botones verdes con una cruz de color negro para hacer un zoom, en el botón verde con un guión para alejar o en las flechas verdes para mapas adyacentes.


METAR-TAF: